Time;durP1;ratioP1;P1;durP2;ratioP2;P2;SDS_P1;SDS_P2;PMS_P1;PMS_P2;Temp;Humidity;BMP_temperature;BMP_pressure;BME280_temperature;BME280_humidity;BME280_pressure;Samples;Min_cycle;Max_cycle;Signal;HPM_P1;HPM_P2
2022/12/25 00:00:33;;;;;;;21.03;8.67;;;4.30;99.90;;;;;;5056068;28;20635;-89
2022/12/25 00:03:04;;;;;;;19.83;8.80;;;4.30;99.90;;;;;;5056961;28;20181;-89
2022/12/25 00:05:30;;;;;;;26.50;9.03;;;4.30;99.90;;;;;;5055717;28;20208;-89
2022/12/25 00:07:56;;;;;;;24.97;8.50;;;4.30;99.90;;;;;;5055566;28;20178;-89
2022/12/25 00:10:21;;;;;;;21.37;8.93;;;4.30;99.90;;;;;;5055907;28;20189;-89
2022/12/25 00:12:50;;;;;;;27.47;8.80;;;4.40;99.90;;;;;;5055645;28;20193;-89
2022/12/25 00:15:16;;;;;;;19.67;8.53;;;4.30;99.90;;;;;;5055834;28;20209;-89
2022/12/25 00:17:42;;;;;;;21.50;8.40;;;4.30;99.90;;;;;;5056433;28;20240;-89
2022/12/25 00:20:08;;;;;;;22.63;7.80;;;4.30;99.90;;;;;;5055367;28;20273;-89
2022/12/25 00:22:34;;;;;;;19.93;7.70;;;4.30;99.90;;;;;;5055427;28;20261;-89
2022/12/25 00:25:00;;;;;;;19.80;8.10;;;4.20;99.90;;;;;;5055488;28;20514;-89
2022/12/25 00:27:25;;;;;;;26.07;8.20;;;4.20;99.90;;;;;;5055388;28;20185;-89
2022/12/25 00:29:51;;;;;;;21.33;8.57;;;4.20;99.90;;;;;;5055640;28;20605;-90
2022/12/25 00:32:17;;;;;;;23.37;8.20;;;4.20;99.90;;;;;;5071991;28;20182;-89
2022/12/25 00:34:46;;;;;;;23.80;7.63;;;4.20;99.90;;;;;;5056193;28;20181;-89
2022/12/25 00:37:11;;;;;;;24.07;7.37;;;4.20;99.90;;;;;;5055348;28;20182;-89
2022/12/25 00:39:37;;;;;;;27.03;9.20;;;4.20;99.90;;;;;;5071835;28;20218;-89
2022/12/25 00:42:18;;;;;;;21.53;7.63;;;4.20;99.90;;;;;;5055181;28;20178;-89
2022/12/25 00:44:56;;;;;;;25.23;7.70;;;4.30;99.90;;;;;;5054907;28;20253;-88
2022/12/25 00:47:22;;;;;;;24.40;7.83;;;4.20;99.90;;;;;;5055159;28;20174;-89
2022/12/25 00:49:48;;;;;;;27.07;8.10;;;4.30;99.90;;;;;;5054770;28;20215;-89
2022/12/25 00:52:14;;;;;;;18.80;7.70;;;4.20;99.90;;;;;;5055075;28;20613;-89
2022/12/25 00:54:42;;;;;;;19.97;7.40;;;4.20;99.90;;;;;;5054854;28;20368;-89
2022/12/25 00:57:07;;;;;;;20.67;6.70;;;4.30;99.90;;;;;;5055035;28;20265;-89
2022/12/25 00:59:33;;;;;;;20.37;7.30;;;4.30;99.90;;;;;;5054718;28;20360;-89
2022/12/25 01:04:44;;;;;;;18.10;7.30;;;4.20;99.90;;;;;;5055874;28;20510;-89
2022/12/25 01:07:10;;;;;;;15.83;6.40;;;4.10;99.90;;;;;;5054544;28;20579;-90
2022/12/25 01:12:21;;;;;;;17.43;7.00;;;4.10;99.90;;;;;;5055724;28;20181;-89
2022/12/25 01:14:46;;;;;;;20.10;6.87;;;4.20;99.90;;;;;;5054429;28;20186;-89
2022/12/25 01:17:12;;;;;;;17.07;6.13;;;4.10;99.90;;;;;;5054472;28;20185;-89
2022/12/25 01:19:38;;;;;;;17.00;7.13;;;4.10;99.90;;;;;;5053387;28;20263;-89
2022/12/25 01:22:04;;;;;;;21.80;5.63;;;4.00;99.90;;;;;;5053965;28;20283;-89
2022/12/25 01:24:30;;;;;;;13.40;5.60;;;3.80;99.90;;;;;;5070730;28;20194;-89
2022/12/25 01:26:56;;;;;;;16.40;5.80;;;3.80;99.90;;;;;;5054147;28;20584;-89
2022/12/25 01:29:22;;;;;;;20.57;6.10;;;3.80;99.90;;;;;;5054410;28;20620;-90
2022/12/25 01:31:48;;;;;;;13.23;5.97;;;3.80;99.90;;;;;;5054471;28;20186;-90
2022/12/25 01:34:14;;;;;;;19.50;6.00;;;3.80;99.90;;;;;;5054051;28;20189;-89
2022/12/25 01:36:40;;;;;;;15.67;5.87;;;3.80;99.90;;;;;;5054246;28;20593;-89
2022/12/25 01:39:06;;;;;;;18.03;6.13;;;3.80;99.90;;;;;;5054194;28;20244;-89
2022/12/25 01:41:32;;;;;;;21.30;5.70;;;3.80;99.90;;;;;;5054113;28;20211;-89
2022/12/25 01:44:01;;;;;;;20.47;5.70;;;3.70;99.90;;;;;;5053903;28;20647;-89
2022/12/25 01:46:28;;;;;;;15.60;5.17;;;3.80;99.90;;;;;;5054065;28;20189;-89
2022/12/25 01:48:56;;;;;;;15.57;6.07;;;3.80;99.90;;;;;;5507973;22;20241;-89
2022/12/25 01:51:29;;;;;;;14.77;5.10;;;3.80;99.90;;;;;;5054507;28;20210;-89
2022/12/25 01:53:58;;;;;;;19.50;5.50;;;3.80;99.90;;;;;;5053346;28;20178;-90
2022/12/25 01:56:26;;;;;;;11.57;5.37;;;3.80;99.90;;;;;;5055436;28;20178;-90
2022/12/25 01:58:55;;;;;;;17.83;5.57;;;3.80;99.90;;;;;;5054879;28;20292;-89
2022/12/25 02:01:21;;;;;;;10.90;4.67;;;3.80;99.90;;;;;;5053588;28;20193;-90
2022/12/25 02:03:46;;;;;;;19.07;5.00;;;3.80;99.90;;;;;;5053187;28;20185;-89
2022/12/25 02:06:12;;;;;;;11.20;4.53;;;3.90;99.90;;;;;;5053865;28;20178;-90
2022/12/25 02:08:40;;;;;;;15.10;5.57;;;3.90;99.90;;;;;;5053833;28;20232;-90
2022/12/25 02:11:55;;;;;;;14.97;5.53;;;3.90;99.90;;;;;;5053902;28;20170;-89
2022/12/25 02:14:01;;;;;;;17.47;5.60;;;3.90;99.90;;;;;;5054892;28;20169;-90
2022/12/25 02:16:31;;;;;;;16.90;5.77;;;3.90;99.90;;;;;;5053602;28;20184;-89
2022/12/25 02:19:01;;;;;;;20.33;5.87;;;3.90;99.90;;;;;;5053324;28;20214;-89
2022/12/25 02:21:38;;;;;;;22.73;6.20;;;3.90;99.90;;;;;;5054966;28;20174;-90
2022/12/25 02:24:19;;;;;;;13.60;5.10;;;4.00;99.90;;;;;;5047536;28;20182;-89
2022/12/25 02:27:06;;;;;;;21.00;5.57;;;4.00;99.90;;;;;;5033859;28;20175;-89
2022/12/25 02:29:41;;;;;;;12.23;4.73;;;4.00;99.90;;;;;;5033839;28;20277;-89
2022/12/25 02:32:24;;;;;;;11.57;5.03;;;3.90;99.90;;;;;;5037845;28;20273;-90
2022/12/25 02:35:11;;;;;;;13.43;4.60;;;3.90;99.90;;;;;;5037357;28;20178;-90
2022/12/25 02:37:51;;;;;;;16.80;5.50;;;3.80;99.90;;;;;;5037520;28;20671;-89
2022/12/25 02:40:29;;;;;;;10.87;4.80;;;3.70;99.90;;;;;;5037710;28;20269;-90
2022/12/25 03:08:22;;;;;;;15.17;5.50;;;3.50;99.90;;;;;;5058467;28;20177;-90
2022/12/25 03:16:50;;;;;;;13.37;4.97;;;3.40;99.90;;;;;;5058346;28;20614;-89
2022/12/25 03:27:57;;;;;;;11.57;4.87;;;3.40;99.90;;;;;;5077992;28;20219;-90
2022/12/25 03:31:11;;;;;;;12.03;5.10;;;3.40;99.90;;;;;;5076494;28;20243;-90
2022/12/25 04:36:56;;;;;;;12.83;4.60;;;3.30;99.90;;;;;;5036972;28;20547;-89
2022/12/25 04:39:22;;;;;;;9.93;3.57;;;3.30;99.90;;;;;;5035327;28;20560;-90
2022/12/25 04:41:52;;;;;;;10.50;4.13;;;3.30;99.90;;;;;;5035386;28;20183;-90
2022/12/25 04:44:17;;;;;;;12.03;4.77;;;3.30;99.90;;;;;;5035175;28;20273;-89
2022/12/25 04:46:43;;;;;;;18.43;5.00;;;3.30;99.90;;;;;;5035326;28;20195;-89
2022/12/25 04:49:09;;;;;;;22.67;6.03;;;3.30;99.90;;;;;;5044786;28;20241;-89
2022/12/25 04:51:35;;;;;;;21.83;5.50;;;3.40;99.90;;;;;;5054959;28;20524;-89
2022/12/25 04:54:01;;;;;;;20.03;5.90;;;3.60;99.90;;;;;;5055003;28;20174;-89
2022/12/25 04:56:27;;;;;;;19.97;5.60;;;3.80;99.90;;;;;;5054860;28;20189;-89
2022/12/25 04:58:52;;;;;;;17.10;5.40;;;3.80;99.90;;;;;;5056020;28;20206;-89
2022/12/25 05:01:19;;;;;;;24.00;6.30;;;3.90;99.90;;;;;;5054791;28;20232;-90
2022/12/25 05:03:45;;;;;;;20.30;5.57;;;4.00;99.90;;;;;;5054532;28;20560;-89
2022/12/25 05:06:12;;;;;;;20.63;5.93;;;4.00;99.90;;;;;;5054663;28;20182;-89
2022/12/25 05:08:37;;;;;;;20.90;5.87;;;4.00;99.90;;;;;;5055744;28;20178;-89
2022/12/25 05:11:11;;;;;;;16.70;5.53;;;4.00;99.90;;;;;;5054667;28;20197;-90
2022/12/25 05:13:38;;;;;;;13.77;4.97;;;4.00;99.90;;;;;;5054171;28;20178;-89
2022/12/25 05:16:12;;;;;;;22.27;5.37;;;4.00;99.90;;;;;;5054642;28;20549;-90
2022/12/25 05:18:37;;;;;;;16.83;5.33;;;4.00;99.90;;;;;;5048678;28;20202;-90
2022/12/25 05:21:06;;;;;;;13.90;5.50;;;4.00;99.90;;;;;;5034279;28;20174;-89
2022/12/25 05:23:33;;;;;;;10.77;5.03;;;4.10;99.90;;;;;;5034572;28;20178;-89
2022/12/25 05:26:02;;;;;;;18.93;5.67;;;4.10;99.90;;;;;;5034500;28;20628;-89
2022/12/25 05:28:28;;;;;;;13.53;5.17;;;4.10;99.90;;;;;;5034244;28;20209;-90
2022/12/25 05:30:56;;;;;;;10.67;4.60;;;4.10;99.90;;;;;;5034377;28;20181;-89
2022/12/25 05:33:22;;;;;;;11.90;5.40;;;4.10;99.90;;;;;;5034410;28;20497;-90
2022/12/25 05:35:48;;;;;;;14.87;5.67;;;4.10;99.90;;;;;;5034375;28;20186;-90
2022/12/25 05:38:13;;;;;;;18.60;4.97;;;4.10;99.90;;;;;;5034324;28;20585;-89
2022/12/25 05:40:39;;;;;;;12.73;4.67;;;4.10;99.90;;;;;;5034289;28;20182;-89
2022/12/25 05:43:06;;;;;;;16.57;4.97;;;4.10;99.90;;;;;;5034003;28;20175;-89
2022/12/25 05:45:31;;;;;;;22.10;5.77;;;4.00;99.90;;;;;;5034379;28;20205;-89
2022/12/25 05:47:57;;;;;;;17.00;5.47;;;4.00;99.90;;;;;;5033829;28;20317;-89
2022/12/25 05:50:23;;;;;;;13.10;5.13;;;4.00;99.90;;;;;;5054039;28;20178;-90
2022/12/25 05:52:49;;;;;;;20.70;5.90;;;4.10;99.90;;;;;;5053928;28;20209;-89
2022/12/25 05:55:15;;;;;;;15.77;5.03;;;4.10;99.90;;;;;;5054045;28;20169;-90
2022/12/25 05:57:41;;;;;;;18.27;5.47;;;4.20;99.90;;;;;;5054955;28;20751;-90
2022/12/25 18:12:44;;;;;;;17.73;5.30;;;7.70;99.90;;;;;;3895319;23;20208;31
2022/12/25 18:15:11;;;;;;;8.77;4.95;;;7.60;99.90;;;;;;4958256;28;20215;-91
2022/12/25 18:17:38;;;;;;;12.85;5.00;;;7.60;99.90;;;;;;4958181;28;20191;-88
2022/12/25 18:20:05;;;;;;;10.50;5.30;;;7.60;99.90;;;;;;4957639;28;20662;-89
2022/12/25 18:22:32;;;;;;;9.60;5.63;;;7.60;99.90;;;;;;4958515;28;20211;-88
2022/12/25 18:25:00;;;;;;;11.63;5.25;;;7.60;99.90;;;;;;4957722;28;20184;-89
2022/12/25 18:27:25;;;;;;;10.23;5.10;;;7.60;99.90;;;;;;4958689;28;20195;-88
2022/12/25 18:29:51;;;;;;;15.23;5.38;;;7.60;99.90;;;;;;4961995;28;20193;-90
2022/12/25 18:32:17;;;;;;;7.97;5.32;;;7.60;99.90;;;;;;4955521;29;20535;-91
2022/12/25 18:34:42;;;;;;;16.00;5.63;;;7.60;99.90;;;;;;4956578;29;20189;-88
2022/12/25 18:37:08;;;;;;;8.93;5.45;;;7.60;99.90;;;;;;4957022;29;20170;-89
2022/12/25 18:39:34;;;;;;;11.90;5.83;;;7.60;99.90;;;;;;4955499;29;20657;-93
2022/12/25 18:44:53;;;;;;;12.82;5.53;;;7.50;99.90;;;;;;4957064;29;20184;-91
2022/12/25 18:47:19;;;;;;;10.07;5.90;;;7.50;99.90;;;;;;4939527;29;20293;-92
2022/12/25 18:49:44;;;;;;;8.50;5.70;;;7.50;99.90;;;;;;4939811;29;20197;-89
2022/12/25 18:52:10;;;;;;;11.90;6.38;;;7.60;99.90;;;;;;4939799;29;20527;-92
2022/12/25 18:54:38;;;;;;;15.83;5.77;;;7.60;99.90;;;;;;4939587;29;20240;-92
2022/12/25 18:57:04;;;;;;;9.88;6.32;;;7.60;99.90;;;;;;4939473;29;20592;-92
2022/12/25 18:59:29;;;;;;;10.90;5.65;;;7.60;99.90;;;;;;4950335;28;20235;-92
2022/12/25 19:02:00;;;;;;;10.68;5.85;;;7.60;99.90;;;;;;4958858;28;20215;-93
2022/12/25 19:04:30;;;;;;;9.33;5.63;;;7.70;99.90;;;;;;4958877;28;20271;-92
2022/12/25 19:06:55;;;;;;;10.63;5.70;;;7.70;99.90;;;;;;4958882;28;20211;-92
2022/12/25 19:09:21;;;;;;;9.80;5.30;;;7.70;99.90;;;;;;4958634;28;20204;-93
2022/12/25 19:11:47;;;;;;;6.50;5.25;;;7.70;99.90;;;;;;4958480;28;20645;-90
2022/12/25 19:14:15;;;;;;;13.15;5.18;;;7.70;99.90;;;;;;4962167;28;20367;-91
2022/12/25 19:16:40;;;;;;;8.70;4.93;;;7.70;99.90;;;;;;4962376;28;20188;-93
2022/12/25 19:19:06;;;;;;;10.43;4.80;;;7.70;99.90;;;;;;4962408;28;20181;-89
2022/12/25 19:21:32;;;;;;;9.67;4.77;;;7.80;99.90;;;;;;4961769;28;20188;-89
2022/12/25 19:23:57;;;;;;;10.53;5.30;;;7.80;99.90;;;;;;4961571;28;20616;-89
2022/12/25 19:26:23;;;;;;;8.03;4.40;;;7.90;99.90;;;;;;4960918;28;20699;-88
2022/12/25 19:28:49;;;;;;;11.33;5.17;;;7.90;99.90;;;;;;4961775;28;20188;-89
2022/12/25 19:31:14;;;;;;;8.33;5.30;;;7.90;99.90;;;;;;4979191;28;20173;-90
2022/12/25 19:33:41;;;;;;;9.93;5.43;;;8.00;99.90;;;;;;4961580;28;20187;-88
2022/12/25 19:36:10;;;;;;;9.95;5.30;;;8.10;99.90;;;;;;4961573;28;20184;-90
2022/12/25 19:38:36;;;;;;;14.40;5.50;;;8.10;99.90;;;;;;4961749;28;20231;-90
2022/12/25 19:41:07;;;;;;;8.43;5.43;;;8.20;99.90;;;;;;4961274;28;20224;-90
2022/12/25 19:43:35;;;;;;;11.85;5.78;;;8.30;99.90;;;;;;4961666;28;20212;-90
2022/12/25 19:46:30;;;;;;;11.30;5.50;;;8.30;99.90;;;;;;4961387;28;20188;-89
2022/12/25 19:48:57;;;;;;;9.25;5.78;;;8.40;99.90;;;;;;4976629;28;20628;-89
2022/12/25 19:51:27;;;;;;;10.20;5.97;;;8.40;99.90;;;;;;4961456;28;20188;-89
2022/12/25 19:53:56;;;;;;;8.43;5.72;;;8.50;99.90;;;;;;4961399;28;20220;-88
2022/12/25 19:56:26;;;;;;;10.35;5.97;;;8.60;99.90;;;;;;4961059;28;20192;-89
2022/12/25 19:58:52;;;;;;;11.65;6.28;;;8.60;99.90;;;;;;4961209;28;20196;-90
2022/12/25 20:01:20;;;;;;;9.82;6.57;;;8.60;99.90;;;;;;4961028;28;20243;-89
2022/12/25 20:03:47;;;;;;;9.18;6.53;;;8.60;99.90;;;;;;4961164;28;20184;-88
2022/12/25 20:06:22;;;;;;;9.30;5.75;;;8.70;99.90;;;;;;4960924;28;20241;-87
2022/12/25 20:08:51;;;;;;;8.15;5.55;;;8.70;99.90;;;;;;4961362;28;20522;-89
2022/12/25 20:11:17;;;;;;;9.55;5.85;;;8.80;99.90;;;;;;4977861;28;20526;-88
2022/12/25 20:13:43;;;;;;;11.07;5.28;;;8.90;99.90;;;;;;4960799;28;20679;-88
2022/12/25 20:16:09;;;;;;;7.50;5.38;;;9.00;99.90;;;;;;4960648;28;20295;-86
2022/12/25 20:18:36;;;;;;;7.97;5.07;;;9.00;99.90;;;;;;4960789;28;20180;-88
2022/12/25 20:21:04;;;;;;;7.85;4.80;;;9.00;99.90;;;;;;4961069;28;20639;-88
2022/12/25 20:23:30;;;;;;;7.07;4.93;;;9.00;99.90;;;;;;4960714;28;20181;-88
2022/12/25 20:26:03;;;;;;;8.03;5.23;;;9.00;99.90;;;;;;4959832;28;20184;-89
2022/12/25 20:28:31;;;;;;;8.27;4.50;;;9.10;99.90;;;;;;4959564;28;20583;-88
2022/12/25 20:30:57;;;;;;;9.88;5.28;;;9.10;99.90;;;;;;4960997;28;20192;-90
2022/12/25 20:33:23;;;;;;;5.45;4.15;;;9.00;99.90;;;;;;4960584;28;20189;-89
2022/12/25 20:35:49;;;;;;;7.30;4.97;;;9.10;99.90;;;;;;4960187;28;20184;-88
2022/12/25 20:38:15;;;;;;;7.88;4.78;;;9.10;99.90;;;;;;4961139;28;20208;-89
2022/12/25 20:40:42;;;;;;;5.90;4.60;;;9.10;99.90;;;;;;4977171;28;20212;-90
2022/12/25 20:43:07;;;;;;;9.18;4.65;;;9.20;99.90;;;;;;4959945;28;20181;-90
2022/12/25 20:45:37;;;;;;;8.20;4.50;;;9.20;99.90;;;;;;4959920;28;20267;-89
2022/12/25 20:48:03;;;;;;;9.45;4.65;;;9.30;99.90;;;;;;4950524;28;20209;-89
2022/12/25 20:50:29;;;;;;;6.85;4.65;;;9.30;99.90;;;;;;4948301;28;20534;-89
2022/12/25 20:52:55;;;;;;;6.82;4.43;;;9.40;99.90;;;;;;4969481;28;20188;-90
2022/12/25 20:55:22;;;;;;;9.13;4.07;;;9.50;99.90;;;;;;4954110;28;20535;-87
2022/12/25 20:57:48;;;;;;;12.70;4.28;;;9.50;99.90;;;;;;4950575;28;20580;-90
2022/12/25 21:00:14;;;;;;;6.43;4.18;;;9.50;99.90;;;;;;4947780;28;20205;-88
2022/12/25 21:02:41;;;;;;;7.78;4.10;;;9.50;99.90;;;;;;4948909;28;20280;-91
2022/12/25 21:05:11;;;;;;;7.53;4.50;;;9.50;99.90;;;;;;4949076;28;20204;-88
2022/12/25 21:07:42;;;;;;;9.75;4.30;;;9.50;99.90;;;;;;4952380;28;20279;-91
2022/12/25 21:10:08;;;;;;;4.68;4.07;;;9.50;99.90;;;;;;4946630;28;20189;-90
2022/12/25 21:12:34;;;;;;;6.28;4.05;;;9.50;99.90;;;;;;4952393;28;20199;-93
2022/12/25 21:14:59;;;;;;;7.82;4.30;;;9.50;99.90;;;;;;4951399;28;20185;-90
2022/12/25 21:17:29;;;;;;;7.80;4.70;;;9.50;99.90;;;;;;4951688;28;20189;-95
2022/12/25 21:19:55;;;;;;;6.97;4.10;;;9.60;99.90;;;;;;4968911;28;20212;-91
2022/12/25 21:22:21;;;;;;;7.90;4.18;;;9.70;99.90;;;;;;4947013;28;20529;-92
2022/12/25 21:24:50;;;;;;;4.93;3.75;;;9.70;99.90;;;;;;4959470;28;20211;-89
2022/12/25 21:27:20;;;;;;;6.38;4.07;;;9.70;99.90;;;;;;4952118;28;20529;-90
2022/12/25 21:29:46;;;;;;;5.88;4.07;;;9.80;99.90;;;;;;4956131;28;20653;-91
2022/12/25 21:34:56;;;;;;;6.68;4.00;;;9.80;99.90;;;;;;4969574;28;20187;-89
2022/12/25 21:37:22;;;;;;;7.30;4.28;;;9.80;99.90;;;;;;4946211;28;20279;-89
2022/12/25 21:39:49;;;;;;;5.28;4.03;;;9.80;99.90;;;;;;4951101;28;20747;-91
2022/12/25 21:42:15;;;;;;;6.32;4.10;;;9.70;99.90;;;;;;4963055;28;20193;-90
2022/12/25 21:44:40;;;;;;;8.95;4.30;;;9.70;99.90;;;;;;4953304;28;20627;-89
2022/12/25 21:47:09;;;;;;;8.88;4.30;;;9.70;99.90;;;;;;4965048;28;20181;-90
2022/12/25 21:52:19;;;;;;;8.07;4.03;;;9.70;99.90;;;;;;4960621;28;20541;-90
2022/12/25 21:54:44;;;;;;;10.93;4.00;;;9.70;99.90;;;;;;4944620;28;20211;-96
2022/12/25 21:57:25;;;;;;;6.47;4.40;;;9.70;99.90;;;;;;4966389;28;20188;-93
2022/12/25 21:59:51;;;;;;;6.15;4.10;;;9.80;99.90;;;;;;4948724;28;20228;-89
2022/12/25 22:02:17;;;;;;;6.53;4.20;;;9.80;99.90;;;;;;4960381;28;20524;-90
2022/12/25 22:04:43;;;;;;;10.07;4.32;;;9.80;99.90;;;;;;4946939;28;20196;-93
2022/12/25 22:07:32;;;;;;;6.15;4.03;;;9.80;99.90;;;;;;4947990;28;20685;-89
2022/12/25 22:09:57;;;;;;;5.95;3.90;;;9.80;99.90;;;;;;4946757;28;20491;-90
2022/12/25 22:15:09;;;;;;;5.75;4.03;;;9.80;99.90;;;;;;4968630;28;20223;-89
2022/12/25 22:20:33;;;;;;;9.10;4.70;;;9.90;99.90;;;;;;4970588;28;20669;-89
2022/12/25 22:22:59;;;;;;;8.30;4.20;;;9.90;99.90;;;;;;4949452;28;20681;-89
2022/12/25 22:25:25;;;;;;;7.80;3.97;;;9.90;99.90;;;;;;4961229;28;20287;-93
2022/12/25 22:27:52;;;;;;;8.43;4.28;;;9.90;99.90;;;;;;4948634;28;20213;-88
2022/12/25 22:30:21;;;;;;;6.00;4.75;;;9.90;99.90;;;;;;4949681;28;20626;-90
2022/12/25 22:32:47;;;;;;;6.93;4.18;;;9.90;99.90;;;;;;4950877;28;20658;-89
2022/12/25 22:35:13;;;;;;;9.38;4.72;;;9.90;99.90;;;;;;4946120;28;20213;-87
2022/12/25 22:37:41;;;;;;;7.35;4.63;;;9.90;99.90;;;;;;4950145;28;20220;-91
2022/12/25 22:40:09;;;;;;;11.60;4.47;;;9.90;99.90;;;;;;4954406;28;20220;-93
2022/12/25 22:42:35;;;;;;;9.27;4.70;;;9.90;99.90;;;;;;4947240;28;20230;-90
2022/12/25 22:45:01;;;;;;;9.75;4.47;;;9.90;99.90;;;;;;4940795;28;20515;-91
2022/12/25 22:47:29;;;;;;;10.70;4.65;;;10.00;99.90;;;;;;4955428;28;20628;-89
2022/12/25 22:49:55;;;;;;;6.63;4.38;;;9.90;99.90;;;;;;4949392;28;20189;-90
2022/12/25 22:52:21;;;;;;;6.80;4.43;;;9.90;99.90;;;;;;4943137;29;20181;-90
2022/12/25 22:54:47;;;;;;;6.47;4.40;;;9.90;99.90;;;;;;4943031;29;20178;-91
2022/12/25 22:57:12;;;;;;;4.75;4.13;;;9.90;99.90;;;;;;4953373;28;20195;-91
2022/12/25 22:59:53;;;;;;;10.30;4.82;;;9.90;99.90;;;;;;4979958;28;20224;-89
2022/12/25 23:02:19;;;;;;;6.25;4.82;;;9.90;99.90;;;;;;4979642;28;20191;-90
2022/12/25 23:04:45;;;;;;;7.63;4.50;;;9.90;99.90;;;;;;4962287;28;20181;-89
2022/12/25 23:07:13;;;;;;;7.82;4.45;;;9.90;99.90;;;;;;4962270;28;20208;-94
2022/12/25 23:09:43;;;;;;;7.38;5.07;;;10.00;99.90;;;;;;4963324;28;20184;-91
2022/12/25 23:14:37;;;;;;;9.60;4.97;;;10.00;99.90;;;;;;4964002;28;20208;-92
2022/12/25 23:14:57;;;;;;;8.77;4.93;;;10.00;99.90;;;;;;4979664;28;20263;-92
2022/12/25 23:31:06;;;;;;;8.48;5.35;;;10.00;99.90;;;;;;4979902;28;20567;-93
2022/12/25 23:33:31;;;;;;;8.70;4.82;;;10.00;99.90;;;;;;4962022;28;20219;-91
2022/12/25 23:35:57;;;;;;;8.25;5.22;;;10.00;99.90;;;;;;4962007;28;20188;-91
2022/12/25 23:38:25;;;;;;;11.20;5.35;;;10.00;99.90;;;;;;4961926;28;20180;-91
2022/12/25 23:40:51;;;;;;;9.55;5.28;;;10.00;99.90;;;;;;4962044;28;20258;-90
2022/12/25 23:43:17;;;;;;;11.15;6.03;;;10.00;99.90;;;;;;4979039;28;20560;-89
2022/12/25 23:45:42;;;;;;;8.25;4.75;;;10.00;99.90;;;;;;4961616;28;20185;-92
2022/12/25 23:48:09;;;;;;;9.23;5.47;;;10.00;99.90;;;;;;4961727;28;20184;-92
2022/12/25 23:50:35;;;;;;;9.23;5.00;;;10.00;99.90;;;;;;4961627;28;20173;-91
2022/12/25 23:53:01;;;;;;;7.15;5.00;;;10.00;99.90;;;;;;4961488;28;20271;-93
2022/12/25 23:55:26;;;;;;;9.05;4.47;;;10.00;99.90;;;;;;4961883;28;20593;-91
2022/12/25 23:57:52;;;;;;;7.82;5.35;;;10.00;99.90;;;;;;4957816;28;20214;-90
